Change the Weather History Date:

Thursday, September 26, 2013

  Actual Average Record
Temperature  
Mean Temperature 58 °F -  
Max Temperature 74 °F 65 °F 84 °F (1973)
Min Temperature 42 °F 43 °F 30 °F (1989)
Degree Days  
Heating Degree Days 7    
Growing Degree Days 8 (Base 50)    
Moisture  
Dew Point 47 °F    
Average Humidity 80    
Maximum Humidity 100    
Minimum Humidity 27    
Precipitation  
Precipitation 0.00 in - - ()
Sea Level Pressure  
Sea Level Pressure 30.10 in    
Wind  
Wind Speed 1 mph (South)    
Max Wind Speed 8 mph    
Max Gust Speed -    
Visibility 7 miles    
Events Fog    
Averages and records for this station are not official NWS values.
T = Trace of Precipitation, MM = Missing Value Source: NWS Daily Summary

Daily Weather History Graph

Daily Weather History Graph

Search for Another Location

Airport or City:

Trip Planner

Search our weather history database for the weather conditions in past years. The results will help you decide how hot, cold, wet, or windy it might be!

Date:

Astronomy

Sep. 26, 2013 Rise Set
Actual Time 7:34 AM EDT 7:31 PM EDT
Civil Twilight 7:05 AM EDT 8:00 PM EDT
Nautical Twilight 6:31 AM EDT 8:33 PM EDT
Astronomical Twilight 5:57 AM EDT 9:07 PM EDT
Moon No Moon Rise 2:35 PM EDT (9/26)
Length of Visible Light 12h 54m
Length of Day
11h 57m
Waning Gibbous, 55% of the Moon is Illuminated
Sep 26
Waning Gibbous
Sep 26
Last Quarter
Oct 4
New
Oct 11
First Quarter
Oct 18
Full

Hourly Weather History & Observations

Time (EDT) Temp. Windchill Dew Point Humidity Pressure Visibility Wind Dir Wind Speed Gust Speed Precip Events Conditions
12:15 AM 46.0 °F - 46.0 °F 100% 30.02 in 10.0 mi Calm Calm - N/A   Clear
12:34 AM 45.9 °F - 45.7 °F 99% 30.02 in 10.0 mi Calm Calm - N/A   Clear
12:55 AM 45.9 °F 44.6 °F 45.9 °F 100% 30.02 in 10.0 mi West 3.5 mph - N/A   Clear
1:15 AM 45.7 °F - 45.5 °F 99% 30.02 in 10.0 mi Calm Calm - N/A   Clear
1:34 AM 44.6 °F - 44.6 °F 100% 30.03 in 7.0 mi Calm Calm - N/A   Clear
1:55 AM 44.1 °F - 44.1 °F 100% 30.03 in 10.0 mi Calm Calm - N/A   Clear
2:15 AM 42.8 °F - 42.8 °F 100% 30.04 in 10.0 mi Calm Calm - N/A   Clear
2:34 AM 43.0 °F - 43.0 °F 100% 30.05 in 10.0 mi Calm Calm - N/A   Scattered Clouds
2:55 AM 42.6 °F - 42.6 °F 100% 30.05 in 10.0 mi Calm Calm - N/A   Overcast
3:15 AM 42.8 °F - 42.8 °F 100% 30.05 in 10.0 mi Calm Calm - N/A   Overcast
3:35 AM 44.1 °F - 44.1 °F 100% 30.05 in 10.0 mi Calm Calm - N/A   Overcast
3:55 AM 45.3 °F 44.0 °F 45.3 °F 100% 30.07 in 0.8 mi WNW 3.5 mph - N/A   Overcast
4:15 AM 47.3 °F - 47.3 °F 100% 30.07 in 0.2 mi Calm Calm - N/A Fog Fog
4:35 AM 46.6 °F - 46.6 °F 100% 30.08 in 0.2 mi Calm Calm - N/A Fog Fog
4:55 AM 46.2 °F - 46.2 °F 100% 30.08 in 0.2 mi Calm Calm - N/A Fog Fog
5:14 AM 47.1 °F - 47.1 °F 100% 30.08 in 0.2 mi Calm Calm - N/A Fog Fog
5:35 AM 47.3 °F - 47.3 °F 100% 30.08 in 0.2 mi Calm Calm - N/A Fog Fog
5:55 AM 48.2 °F - 48.2 °F 100% 30.09 in 0.2 mi NNW 3.5 mph - N/A Fog Fog
6:14 AM 47.7 °F - 47.7 °F 100% 30.09 in 0.2 mi Calm Calm - N/A Fog Fog
6:35 AM 47.3 °F - 47.3 °F 100% 30.09 in 0.2 mi Calm Calm - N/A Fog Fog
6:55 AM 47.3 °F - 47.3 °F 100% 30.09 in 0.2 mi Calm Calm - N/A Fog Fog
7:15 AM 47.3 °F - 47.3 °F 100% 30.10 in 0.2 mi Calm Calm - N/A Fog Fog
7:35 AM 47.7 °F - 47.7 °F 100% 30.10 in 0.2 mi NE 3.5 mph - N/A Fog Fog
7:55 AM 47.8 °F - 47.8 °F 100% 30.10 in 0.2 mi East 3.5 mph - N/A Fog Fog
8:14 AM 48.2 °F - 48.2 °F 100% 30.11 in 0.2 mi NNE 3.5 mph - N/A Fog Fog
8:35 AM 48.4 °F - 48.4 °F 100% 30.12 in 0.2 mi NNW 3.5 mph - N/A Fog Fog
8:55 AM 48.6 °F - 48.6 °F 100% 30.13 in 0.2 mi North 3.5 mph - N/A Fog Fog
9:14 AM 48.9 °F - 48.9 °F 100% 30.13 in 0.2 mi Calm Calm - N/A Fog Fog
9:35 AM 49.3 °F - 49.3 °F 100% 30.14 in 0.2 mi Calm Calm - N/A Fog Fog
9:55 AM 50.0 °F - 50.0 °F 100% 30.14 in 0.2 mi WNW 4.6 mph - N/A Fog Fog
10:14 AM 50.7 °F - 50.7 °F 100% 30.14 in 0.2 mi Calm Calm - N/A Fog Fog
10:35 AM 51.8 °F - 51.8 °F 100% 30.14 in 0.2 mi Calm Calm - N/A Fog Fog
10:55 AM 52.2 °F - 52.2 °F 100% 30.14 in 0.8 mi SSE 3.5 mph - N/A   Overcast
11:14 AM 53.6 °F - 53.6 °F 100% 30.13 in 7.0 mi SSE 4.6 mph - N/A   Overcast
11:35 AM 54.1 °F - 54.1 °F 100% 30.13 in 10.0 mi SE 5.8 mph - N/A   Overcast
11:55 AM 55.9 °F - 55.9 °F 100% 30.13 in 10.0 mi South 8.1 mph - N/A   Scattered Clouds
12:14 PM 57.2 °F - 57.2 °F 100% 30.12 in 10.0 mi SE 4.6 mph - N/A   Clear
12:35 PM 60.1 °F - 55.9 °F 86% 30.12 in 10.0 mi Calm Calm - N/A   Clear
12:55 PM 62.1 °F - 55.4 °F 79% 30.12 in 10.0 mi ESE 3.5 mph - N/A   Clear
1:14 PM 66.2 °F - 50.2 °F 56% 30.12 in 10.0 mi SSE 3.5 mph - N/A   Clear
1:35 PM 68.0 °F - 50.0 °F 52% 30.12 in 10.0 mi Calm Calm - N/A   Clear
1:55 PM 68.9 °F - 49.5 °F 50% 30.12 in 10.0 mi Calm Calm - N/A   Clear
2:14 PM 69.1 °F - 49.3 °F 49% 30.11 in 10.0 mi Calm Calm - N/A   Clear
2:35 PM 70.7 °F - 48.7 °F 46% 30.10 in 10.0 mi Calm Calm - N/A   Clear
2:55 PM 71.6 °F - 47.5 °F 42% 30.10 in 10.0 mi SE 6.9 mph - N/A   Clear
3:14 PM 71.8 °F - 44.6 °F 38% 30.10 in 10.0 mi SE 3.5 mph - N/A   Clear
3:35 PM 73.2 °F - 44.4 °F 36% 30.10 in 10.0 mi SSE 3.5 mph - N/A   Clear
3:55 PM 72.7 °F - 45.0 °F 37% 30.10 in 10.0 mi Calm Calm - N/A   Clear
4:14 PM 73.8 °F - 43.9 °F 34% 30.10 in 10.0 mi Calm Calm - N/A   Clear
4:35 PM 74.8 °F - 39.6 °F 28% 30.10 in 10.0 mi South 5.8 mph - N/A   Clear
4:54 PM 74.8 °F - 38.7 °F 27% 30.10 in 10.0 mi SSW 5.8 mph - N/A   Clear
5:15 PM 74.3 °F - 38.5 °F 27% 30.10 in 10.0 mi Calm Calm - N/A   Clear
5:35 PM 74.1 °F - 37.8 °F 27% 30.11 in 10.0 mi South 3.5 mph - N/A   Clear
5:54 PM 73.6 °F - 39.4 °F 29% 30.11 in 10.0 mi South 4.6 mph - N/A   Clear
6:15 PM 72.7 °F - 43.2 °F 35% 30.11 in 10.0 mi East 5.8 mph - N/A   Clear
6:35 PM 72.0 °F - 43.2 °F 35% 30.12 in 10.0 mi East 5.8 mph - N/A   Clear
6:54 PM 70.7 °F - 44.8 °F 39% 30.11 in 10.0 mi Calm Calm - N/A   Clear
7:15 PM 67.5 °F - 47.3 °F 48% 30.11 in 10.0 mi Calm Calm - N/A   Clear
7:35 PM 63.1 °F - 47.8 °F 57% 30.11 in 10.0 mi Calm Calm - N/A   Clear
7:54 PM 61.0 °F - 47.7 °F 62% 30.12 in 10.0 mi West 4.6 mph - N/A   Clear
8:15 PM 58.5 °F - 48.0 °F 68% 30.12 in 10.0 mi Calm Calm - N/A   Clear
8:35 PM 57.7 °F - 48.2 °F 70% 30.12 in 10.0 mi Calm Calm - N/A   Clear
8:54 PM 56.1 °F - 48.6 °F 76% 30.12 in 10.0 mi Calm Calm - N/A   Clear
9:15 PM 54.3 °F - 48.9 °F 82% 30.13 in 10.0 mi West 3.5 mph - N/A   Clear
9:35 PM 53.4 °F - 48.7 °F 84% 30.13 in 10.0 mi West 4.6 mph - N/A   Clear
9:54 PM 52.3 °F - 48.4 °F 86% 30.13 in 10.0 mi Calm Calm - N/A   Clear
10:15 PM 50.7 °F - 49.5 °F 95% 30.14 in 10.0 mi Calm Calm - N/A   Clear
10:35 PM 50.5 °F - 48.0 °F 91% 30.14 in 10.0 mi West 4.6 mph - N/A   Clear
10:54 PM 50.4 °F - 49.5 °F 97% 30.14 in 10.0 mi West 4.6 mph - N/A   Clear
11:15 PM 49.1 °F - 48.6 °F 98% 30.14 in 10.0 mi Calm Calm - N/A   Clear
11:35 PM 48.9 °F - 48.4 °F 98% 30.14 in 10.0 mi West 3.5 mph - N/A   Clear
11:54 PM 48.6 °F - 47.7 °F 97% 30.14 in 10.0 mi West 3.5 mph - N/A   Clear